Time;durP1;ratioP1;P1;durP2;ratioP2;P2;SDS_P1;SDS_P2;PMS_P1;PMS_P2;Temp;Humidity;BMP_temperature;BMP_pressure;BME280_temperature;BME280_humidity;BME280_pressure;Samples;Min_cycle;Max_cycle;Signal;HPM_P1;HPM_P2
2021/11/13 00:02:04;;;;;;;40.40;36.27;;;1.40;99.90;;;;;;5043374;28;20976;-80
2021/11/13 00:04:31;;;;;;;40.07;35.47;;;1.50;99.90;;;;;;5042609;28;20801;-81
2021/11/13 00:06:59;;;;;;;41.07;36.77;;;1.50;99.90;;;;;;5043473;28;20503;-81
2021/11/13 00:09:25;;;;;;;41.40;37.17;;;1.60;99.90;;;;;;5045077;28;20490;-82
2021/11/13 00:11:52;;;;;;;39.53;35.53;;;1.60;99.90;;;;;;5050375;28;20836;-81
2021/11/13 00:14:20;;;;;;;37.60;33.80;;;1.60;99.90;;;;;;5047313;28;20478;-81
2021/11/13 00:16:47;;;;;;;38.97;35.10;;;1.60;99.90;;;;;;5041848;28;20997;-81
2021/11/13 00:19:14;;;;;;;38.13;34.23;;;1.60;99.90;;;;;;5043122;28;20482;-80
2021/11/13 00:21:42;;;;;;;38.80;34.80;;;1.70;99.90;;;;;;5043771;28;20955;-80
2021/11/13 00:24:11;;;;;;;39.63;35.53;;;1.60;99.90;;;;;;5041568;28;20513;-81
2021/11/13 00:26:38;;;;;;;35.40;31.83;;;1.70;99.90;;;;;;5043284;28;20453;-80
2021/11/13 00:29:05;;;;;;;36.13;32.63;;;1.60;99.90;;;;;;5044196;28;20452;-81
2021/11/13 00:31:33;;;;;;;37.37;33.60;;;1.60;99.90;;;;;;5038302;28;20462;-83
2021/11/13 00:34:00;;;;;;;41.20;37.07;;;1.60;99.90;;;;;;5046039;28;20453;-80
2021/11/13 00:36:27;;;;;;;45.17;38.53;;;1.50;99.90;;;;;;5053537;28;20825;-82
2021/11/13 00:38:54;;;;;;;45.10;40.23;;;1.40;99.90;;;;;;5035094;28;20443;-80
2021/11/13 00:41:22;;;;;;;42.40;37.90;;;1.40;99.90;;;;;;5046302;28;20480;-80
2021/11/13 00:43:50;;;;;;;43.23;38.10;;;1.40;99.90;;;;;;5038205;28;20445;-80
2021/11/13 00:46:17;;;;;;;43.23;38.00;;;1.50;99.90;;;;;;5044541;28;20880;-80
2021/11/13 00:48:44;;;;;;;41.17;36.87;;;1.50;99.90;;;;;;5045469;28;20446;-81
2021/11/13 00:51:12;;;;;;;38.57;34.77;;;1.50;99.90;;;;;;5044809;28;20462;-81
2021/11/13 00:53:39;;;;;;;40.07;35.90;;;1.50;99.90;;;;;;5042656;28;20459;-79
2021/11/13 00:56:06;;;;;;;41.20;37.00;;;1.60;99.90;;;;;;5040935;28;20467;-81
2021/11/13 00:58:36;;;;;;;44.83;39.80;;;1.70;99.90;;;;;;5043849;28;20802;-79
2021/11/13 01:01:04;;;;;;;40.50;36.17;;;1.60;99.90;;;;;;5038863;28;20483;-80
2021/11/13 01:03:31;;;;;;;40.10;35.80;;;1.60;99.90;;;;;;5043716;28;20887;-80
2021/11/13 01:05:58;;;;;;;39.10;35.17;;;1.60;99.90;;;;;;5037630;28;20801;-80
2021/11/13 01:08:25;;;;;;;40.10;36.20;;;1.60;99.90;;;;;;5043922;28;20446;-80
2021/11/13 01:10:52;;;;;;;38.10;34.27;;;1.50;99.90;;;;;;5048632;28;20458;-81
2021/11/13 01:13:22;;;;;;;39.40;35.60;;;1.60;99.90;;;;;;5041601;28;20518;-80
2021/11/13 01:15:55;;;;;;;38.30;34.47;;;1.50;99.90;;;;;;5041810;28;20438;-80
2021/11/13 01:18:22;;;;;;;38.50;34.63;;;1.50;99.90;;;;;;5042659;28;20457;-80
2021/11/13 01:20:50;;;;;;;36.97;33.47;;;1.40;99.90;;;;;;5041849;28;20483;-80
2021/11/13 01:23:17;;;;;;;40.23;35.90;;;1.50;99.90;;;;;;5039801;28;20504;-80
2021/11/13 01:25:44;;;;;;;39.57;35.57;;;1.50;99.90;;;;;;5046222;28;20520;-82
2021/11/13 01:28:14;;;;;;;38.90;34.80;;;1.60;99.90;;;;;;5040968;28;20505;-80
2021/11/13 01:30:41;;;;;;;39.77;35.63;;;1.50;99.90;;;;;;5041149;28;20459;-80
2021/11/13 01:33:09;;;;;;;38.37;34.53;;;1.70;99.90;;;;;;5040873;28;20477;-80
2021/11/13 01:35:36;;;;;;;39.43;35.43;;;1.60;99.90;;;;;;5051534;28;20441;-80
2021/11/13 01:38:03;;;;;;;39.43;35.43;;;1.60;99.90;;;;;;5042045;28;20448;-81
2021/11/13 01:40:30;;;;;;;40.30;36.20;;;1.60;99.90;;;;;;5046723;28;20483;-81
2021/11/13 01:42:59;;;;;;;39.33;35.33;;;1.60;99.90;;;;;;5045400;28;20435;-80
2021/11/13 01:45:26;;;;;;;43.13;37.43;;;1.60;99.90;;;;;;5045980;28;20502;-81
2021/11/13 01:47:53;;;;;;;39.20;35.43;;;1.60;99.90;;;;;;5045990;28;20870;-80
2021/11/13 01:50:24;;;;;;;39.47;35.57;;;1.50;99.90;;;;;;5045485;28;20459;-82
2021/11/13 01:52:51;;;;;;;36.47;33.03;;;1.50;99.90;;;;;;5046402;28;20430;-81
2021/11/13 01:55:22;;;;;;;39.33;35.23;;;1.50;99.90;;;;;;5043074;28;20486;-80
2021/11/13 01:57:50;;;;;;;37.13;33.37;;;1.40;99.90;;;;;;5045084;28;20441;-80
2021/11/13 02:00:20;;;;;;;37.20;33.33;;;1.40;99.90;;;;;;5042968;28;20535;-80
2021/11/13 02:02:47;;;;;;;36.80;33.07;;;1.50;99.90;;;;;;5053441;28;20444;-80
2021/11/13 02:05:14;;;;;;;37.27;33.50;;;1.50;99.90;;;;;;5050613;28;20454;-80
2021/11/13 02:07:42;;;;;;;36.77;33.23;;;1.50;99.90;;;;;;5046561;28;20476;-80
2021/11/13 02:10:13;;;;;;;38.67;34.90;;;1.50;99.90;;;;;;5047534;28;20453;-80
2021/11/13 02:12:41;;;;;;;36.77;33.13;;;1.50;99.90;;;;;;5046616;28;20934;-80
2021/11/13 02:15:09;;;;;;;37.97;34.10;;;1.50;99.90;;;;;;5046369;28;20441;-80
2021/11/13 02:17:36;;;;;;;37.70;34.10;;;1.50;99.90;;;;;;5044985;28;20521;-82
2021/11/13 02:20:29;;;;;;;36.60;33.00;;;1.50;99.90;;;;;;5048018;28;21072;-80
2021/11/13 02:22:59;;;;;;;38.43;34.53;;;1.50;99.90;;;;;;5044168;28;20821;-81
2021/11/13 02:25:28;;;;;;;39.37;35.47;;;1.50;99.90;;;;;;5051551;28;20450;-81
2021/11/13 02:27:55;;;;;;;39.93;35.93;;;1.50;99.90;;;;;;5047089;28;20449;-80
2021/11/13 02:30:22;;;;;;;37.90;34.30;;;1.60;99.90;;;;;;5047384;28;20468;-82
2021/11/13 02:32:50;;;;;;;37.00;33.37;;;1.60;99.90;;;;;;5044988;28;20453;-81
2021/11/13 02:35:18;;;;;;;35.40;31.90;;;1.50;99.90;;;;;;5047600;28;20449;-80
2021/11/13 02:37:47;;;;;;;35.00;31.70;;;1.50;99.90;;;;;;5044778;28;20462;-80
2021/11/13 02:40:15;;;;;;;35.47;31.97;;;1.40;99.90;;;;;;5036697;28;20532;-80
2021/11/13 02:42:43;;;;;;;36.50;32.70;;;1.30;99.90;;;;;;5040316;28;20452;-81
2021/11/13 02:45:14;;;;;;;40.27;35.23;;;1.30;99.90;;;;;;5059306;28;20445;-80
2021/11/13 02:47:44;;;;;;;41.30;36.57;;;1.40;99.90;;;;;;5063702;28;20521;-80
2021/11/13 02:50:14;;;;;;;38.90;34.90;;;1.40;99.90;;;;;;5046025;28;20453;-80
2021/11/13 02:52:48;;;;;;;41.20;37.00;;;1.50;99.90;;;;;;5044080;28;20954;-81
2021/11/13 02:55:15;;;;;;;37.97;34.37;;;1.50;99.90;;;;;;5043713;28;20449;-80
2021/11/13 02:57:43;;;;;;;36.23;32.73;;;1.60;99.90;;;;;;5046966;28;20439;-80
2021/11/13 03:00:12;;;;;;;38.00;34.23;;;1.60;99.90;;;;;;5046824;28;20687;-79
2021/11/13 03:02:41;;;;;;;39.80;34.17;;;1.60;99.90;;;;;;5052085;28;20942;-80
2021/11/13 03:05:20;;;;;;;36.57;33.00;;;1.60;99.90;;;;;;5048738;28;20522;-80
2021/11/13 03:07:48;;;;;;;36.60;33.00;;;1.60;99.90;;;;;;5044988;28;20764;-79
2021/11/13 03:10:16;;;;;;;35.80;32.50;;;1.50;99.90;;;;;;5047897;28;20518;-80
2021/11/13 03:12:43;;;;;;;34.93;31.53;;;1.50;99.90;;;;;;5045730;28;20431;-80
2021/11/13 03:15:11;;;;;;;32.97;30.00;;;1.40;99.90;;;;;;5052651;28;20649;-81
2021/11/13 03:17:39;;;;;;;58.17;34.60;;;1.30;99.90;;;;;;5045601;28;20446;-80
2021/11/13 03:20:07;;;;;;;34.07;30.97;;;1.20;99.90;;;;;;5046201;28;20524;-81
2021/11/13 03:22:37;;;;;;;36.27;32.83;;;1.10;99.90;;;;;;5049525;28;20454;-80
2021/11/13 03:25:07;;;;;;;36.03;32.43;;;1.20;99.90;;;;;;5047230;28;20467;-80
2021/11/13 03:27:35;;;;;;;41.87;34.27;;;1.20;99.90;;;;;;5046724;28;20429;-80
2021/11/13 03:30:02;;;;;;;37.10;33.33;;;1.20;99.90;;;;;;5052943;28;20564;-80
2021/11/13 03:32:29;;;;;;;37.83;33.93;;;1.20;99.90;;;;;;5048766;28;20436;-80
2021/11/13 03:34:56;;;;;;;39.17;35.07;;;1.20;99.90;;;;;;5042099;28;20960;-80
2021/11/13 03:37:23;;;;;;;36.60;33.00;;;1.30;99.90;;;;;;5047864;28;20451;-81
2021/11/13 03:39:50;;;;;;;37.33;33.73;;;1.30;99.90;;;;;;5061598;28;20455;-80
2021/11/13 03:42:18;;;;;;;36.33;32.73;;;1.30;99.90;;;;;;5047703;28;20947;-81
2021/11/13 03:44:45;;;;;;;36.37;32.87;;;1.30;99.90;;;;;;5044445;28;20446;-81
2021/11/13 03:47:12;;;;;;;36.37;32.73;;;1.30;99.90;;;;;;5045918;28;20457;-82
2021/11/13 03:49:39;;;;;;;36.03;32.27;;;1.30;99.90;;;;;;5042863;28;20455;-80
2021/11/13 03:52:06;;;;;;;36.33;32.70;;;1.30;99.90;;;;;;5048311;28;20458;-80
2021/11/13 03:54:33;;;;;;;35.33;32.10;;;1.40;99.90;;;;;;5052377;28;20474;-80
2021/11/13 03:57:00;;;;;;;36.20;32.70;;;1.30;99.90;;;;;;5047733;28;20454;-81
2021/11/13 03:59:30;;;;;;;35.77;32.33;;;1.40;99.90;;;;;;5047875;28;20453;-80
2021/11/13 04:01:57;;;;;;;34.57;31.17;;;1.30;99.90;;;;;;5047776;28;20475;-80
2021/11/13 04:04:24;;;;;;;33.60;30.40;;;1.40;99.90;;;;;;5045143;28;20591;-83
2021/11/13 04:06:51;;;;;;;34.77;31.33;;;1.40;99.90;;;;;;5044570;28;20502;-82
2021/11/13 04:09:18;;;;;;;33.53;30.30;;;1.40;99.90;;;;;;5048442;28;20446;-80
2021/11/13 04:11:46;;;;;;;34.80;31.60;;;1.30;99.90;;;;;;5046094;28;20444;-80
2021/11/13 04:14:13;;;;;;;33.07;30.13;;;1.40;99.90;;;;;;5050196;28;20507;-81
2021/11/13 04:16:41;;;;;;;33.80;30.57;;;1.30;99.90;;;;;;5043997;28;20971;-80
2021/11/13 04:19:12;;;;;;;35.20;31.93;;;1.30;99.90;;;;;;5052274;28;20439;-81
2021/11/13 04:21:39;;;;;;;35.57;32.17;;;1.40;99.90;;;;;;5051973;28;20480;-81
2021/11/13 04:24:07;;;;;;;36.27;32.87;;;1.20;99.90;;;;;;5047723;28;20961;-80
2021/11/13 04:26:34;;;;;;;35.93;32.37;;;1.30;99.90;;;;;;5055164;28;20457;-83
2021/11/13 04:29:01;;;;;;;35.90;32.60;;;1.40;99.90;;;;;;5052345;28;20450;-81
2021/11/13 04:31:28;;;;;;;35.43;32.03;;;1.50;99.90;;;;;;5044603;28;20985;-81
2021/11/13 04:34:01;;;;;;;34.30;31.23;;;1.50;99.90;;;;;;5053816;28;20462;-80
2021/11/13 04:36:31;;;;;;;34.43;31.23;;;1.60;99.90;;;;;;5045047;28;20457;-81
2021/11/13 04:38:58;;;;;;;33.63;30.53;;;1.50;99.90;;;;;;5046827;28;20437;-80
2021/11/13 04:41:25;;;;;;;33.90;30.90;;;1.50;99.90;;;;;;5045858;28;20493;-80
2021/11/13 04:43:52;;;;;;;34.00;30.90;;;1.50;99.90;;;;;;5055497;28;20450;-81
2021/11/13 04:46:19;;;;;;;34.43;31.23;;;1.50;99.90;;;;;;5056183;28;20452;-82
2021/11/13 04:48:46;;;;;;;34.03;30.67;;;1.60;99.90;;;;;;5066286;28;20438;-80
2021/11/13 04:51:14;;;;;;;33.30;30.33;;;1.60;99.90;;;;;;5071968;22;20538;-76
2021/11/13 04:53:42;;;;;;;33.03;29.87;;;1.60;99.90;;;;;;5045797;28;20939;-77
2021/11/13 04:56:09;;;;;;;32.17;29.37;;;1.50;99.90;;;;;;5039064;28;20454;-77
2021/11/13 04:58:36;;;;;;;33.27;30.07;;;1.60;99.90;;;;;;5038755;28;21018;-76
2021/11/13 05:01:04;;;;;;;34.27;30.87;;;1.60;99.90;;;;;;5041937;28;20494;-77
2021/11/13 05:03:31;;;;;;;33.20;30.27;;;1.60;99.90;;;;;;5034718;28;20508;-77
2021/11/13 05:05:58;;;;;;;33.47;30.30;;;1.60;99.90;;;;;;5039211;28;20501;-77
2021/11/13 05:08:27;;;;;;;33.73;30.67;;;1.60;99.90;;;;;;5037136;28;20441;-77
2021/11/13 05:10:54;;;;;;;33.23;30.30;;;1.70;99.90;;;;;;5039696;28;20501;-77
2021/11/13 05:13:22;;;;;;;34.50;31.27;;;1.70;99.90;;;;;;5035975;28;20435;-77
2021/11/13 05:15:49;;;;;;;34.73;31.37;;;1.70;99.90;;;;;;5040240;28;20860;-77
2021/11/13 05:18:16;;;;;;;34.23;31.13;;;1.70;99.90;;;;;;5042423;28;20522;-77
2021/11/13 05:20:43;;;;;;;34.30;31.17;;;1.80;99.90;;;;;;5035678;28;20583;-77
2021/11/13 05:23:10;;;;;;;33.83;30.73;;;1.90;99.90;;;;;;5042262;28;20934;-77
2021/11/13 05:25:38;;;;;;;32.13;29.13;;;2.00;99.90;;;;;;5033506;28;20466;-78
2021/11/13 05:28:05;;;;;;;32.90;30.00;;;2.00;99.90;;;;;;5041090;28;20489;-77
2021/11/13 05:30:31;;;;;;;31.63;28.73;;;2.10;99.90;;;;;;5039566;28;20529;-78
2021/11/13 05:32:58;;;;;;;31.83;29.00;;;2.10;99.90;;;;;;5038598;28;20451;-78
2021/11/13 05:35:26;;;;;;;32.13;29.13;;;2.10;99.90;;;;;;5042006;28;20521;-78
2021/11/13 05:37:54;;;;;;;31.67;28.87;;;2.10;99.90;;;;;;5038528;28;20430;-76
2021/11/13 05:40:21;;;;;;;32.30;29.40;;;2.10;99.90;;;;;;5038142;28;20455;-78
2021/11/13 05:42:51;;;;;;;32.07;29.27;;;2.20;99.90;;;;;;5048248;28;21041;-77
2021/11/13 05:45:18;;;;;;;32.90;30.10;;;2.10;99.90;;;;;;5041116;28;20893;-78
2021/11/13 05:47:45;;;;;;;32.07;29.17;;;2.10;99.90;;;;;;5042388;28;20442;-78
2021/11/13 05:50:13;;;;;;;31.27;28.57;;;2.10;99.90;;;;;;5031756;28;20880;-79
2021/11/13 05:52:41;;;;;;;31.73;28.93;;;2.10;99.90;;;;;;5041438;28;20431;-79
2021/11/13 05:55:09;;;;;;;30.40;27.77;;;2.10;99.90;;;;;;5042696;28;20441;-79
2021/11/13 05:57:36;;;;;;;31.43;28.53;;;2.10;99.90;;;;;;5041027;28;20519;-79
2021/11/13 06:00:07;;;;;;;30.97;28.17;;;2.10;99.90;;;;;;5035522;28;20436;-79
2021/11/13 06:02:39;;;;;;;31.87;28.87;;;2.10;99.90;;;;;;5033649;28;20558;-81
2021/11/13 06:05:06;;;;;;;31.47;28.67;;;2.10;99.90;;;;;;5037321;28;20941;-78
2021/11/13 06:07:33;;;;;;;32.13;29.17;;;2.10;99.90;;;;;;5038889;28;20440;-78
2021/11/13 06:10:00;;;;;;;31.20;28.40;;;2.10;99.90;;;;;;5037632;28;20522;-78
2021/11/13 06:12:27;;;;;;;31.20;28.50;;;2.10;99.90;;;;;;5037955;28;20812;-77
2021/11/13 06:14:53;;;;;;;32.27;29.47;;;2.00;99.90;;;;;;5043403;28;20450;-78
2021/11/13 06:17:22;;;;;;;32.07;29.13;;;2.00;99.90;;;;;;5040940;28;20891;-77
2021/11/13 06:19:48;;;;;;;32.53;29.73;;;2.00;99.90;;;;;;5044170;28;20491;-78
2021/11/13 06:22:15;;;;;;;32.70;29.60;;;1.90;99.90;;;;;;5043434;28;20482;-78
2021/11/13 06:24:42;;;;;;;34.17;30.93;;;1.90;99.90;;;;;;5045819;28;20427;-78
2021/11/13 06:27:10;;;;;;;33.83;30.83;;;1.90;99.90;;;;;;5039224;28;20439;-79
2021/11/13 06:29:37;;;;;;;33.63;30.37;;;2.00;99.90;;;;;;5043889;28;20456;-78
2021/11/13 06:32:04;;;;;;;33.67;30.50;;;2.00;99.90;;;;;;5046656;28;20753;-79
2021/11/13 06:34:32;;;;;;;35.97;32.53;;;2.00;99.90;;;;;;5040610;28;20473;-79
2021/11/13 06:36:59;;;;;;;35.67;32.30;;;2.10;99.90;;;;;;5042280;28;20466;-80
2021/11/13 06:39:26;;;;;;;33.77;30.67;;;2.10;99.90;;;;;;5046925;28;20440;-79
2021/11/13 06:41:53;;;;;;;37.33;33.50;;;2.20;99.90;;;;;;5039386;28;20475;-77
2021/11/13 06:44:20;;;;;;;36.97;33.17;;;2.20;99.90;;;;;;5041320;28;20453;-78
2021/11/13 06:46:47;;;;;;;37.27;33.77;;;2.20;99.90;;;;;;5039961;28;21024;-79
2021/11/13 06:49:14;;;;;;;37.97;34.27;;;2.20;99.90;;;;;;5045078;28;20977;-79
2021/11/13 06:51:42;;;;;;;36.83;33.23;;;2.30;99.90;;;;;;5044381;28;20548;-78
2021/11/13 06:54:09;;;;;;;38.07;34.37;;;2.40;99.90;;;;;;5038245;28;20434;-76
2021/11/13 06:56:36;;;;;;;37.53;33.63;;;2.40;99.90;;;;;;5040539;28;20858;-79
2021/11/13 06:59:06;;;;;;;35.73;32.23;;;2.50;99.90;;;;;;5042072;28;20468;-78
2021/11/13 07:01:33;;;;;;;34.73;31.43;;;2.60;99.90;;;;;;5037414;28;20475;-76
2021/11/13 07:04:00;;;;;;;34.87;31.60;;;2.70;99.90;;;;;;5048297;28;20450;-77
2021/11/13 07:06:27;;;;;;;33.17;30.30;;;2.70;99.90;;;;;;5036508;28;20449;-77
2021/11/13 07:08:56;;;;;;;36.23;32.73;;;2.70;99.90;;;;;;5050024;28;20447;-77
2021/11/13 07:11:23;;;;;;;35.07;31.70;;;2.70;99.90;;;;;;5043261;28;20470;-77
2021/11/13 07:13:50;;;;;;;35.07;31.43;;;2.70;99.90;;;;;;5034298;28;20487;-78
2021/11/13 07:16:17;;;;;;;34.20;30.97;;;2.60;99.90;;;;;;5048698;28;20511;-77
2021/11/13 07:18:44;;;;;;;35.23;32.13;;;2.70;99.90;;;;;;5039975;28;20971;-77
2021/11/13 07:21:10;;;;;;;34.83;31.27;;;2.80;99.90;;;;;;5038302;28;20477;-77
2021/11/13 07:23:38;;;;;;;32.50;29.33;;;2.80;99.90;;;;;;5039292;28;20501;-77
2021/11/13 07:26:07;;;;;;;32.73;29.67;;;2.90;99.90;;;;;;5045019;28;20437;-77
2021/11/13 07:28:38;;;;;;;35.17;31.67;;;2.90;99.90;;;;;;5050977;28;20453;-77
2021/11/13 07:31:05;;;;;;;34.97;31.80;;;3.00;99.90;;;;;;5041277;28;20851;-78
2021/11/13 07:33:31;;;;;;;34.33;31.27;;;3.00;99.90;;;;;;5047269;28;20803;-77
2021/11/13 07:35:59;;;;;;;35.70;32.40;;;3.10;99.90;;;;;;5037805;28;20481;-76
2021/11/13 07:38:26;;;;;;;35.27;31.97;;;3.20;99.90;;;;;;5044815;28;20446;-77
2021/11/13 07:40:52;;;;;;;35.57;32.33;;;3.20;99.90;;;;;;5044206;28;20521;-76
2021/11/13 07:43:21;;;;;;;34.17;30.97;;;3.20;99.90;;;;;;5038299;28;20445;-78
2021/11/13 07:45:48;;;;;;;32.70;29.63;;;3.30;99.90;;;;;;5045831;28;20483;-80
2021/11/13 07:48:15;;;;;;;30.97;28.07;;;3.30;99.90;;;;;;5038714;28;20462;-76
2021/11/13 07:50:42;;;;;;;28.20;25.50;;;3.40;99.90;;;;;;5037702;28;20472;-77
2021/11/13 07:53:10;;;;;;;29.20;26.50;;;3.40;99.90;;;;;;5043698;28;20522;-77
2021/11/13 07:55:38;;;;;;;27.60;24.80;;;3.30;99.90;;;;;;5034829;28;20979;-77
2021/11/13 07:58:06;;;;;;;29.23;26.63;;;3.40;99.90;;;;;;5048527;28;20430;-76
2021/11/13 08:00:35;;;;;;;29.90;27.20;;;3.40;99.90;;;;;;5044084;28;20978;-76
2021/11/13 08:03:02;;;;;;;28.87;26.37;;;3.50;99.90;;;;;;5038159;28;20512;-76
2021/11/13 08:05:29;;;;;;;30.30;27.33;;;3.50;99.90;;;;;;5043492;28;20460;-76
2021/11/13 08:07:56;;;;;;;29.47;26.80;;;3.50;99.90;;;;;;5033149;28;20445;-76
2021/11/13 08:10:22;;;;;;;28.57;26.00;;;3.40;99.90;;;;;;5044729;28;20225;-76
2021/11/13 08:12:49;;;;;;;28.87;26.30;;;3.50;99.90;;;;;;5040253;28;20481;-76
2021/11/13 08:15:17;;;;;;;31.30;28.30;;;3.50;99.90;;;;;;5038889;28;20965;-77
2021/11/13 08:17:46;;;;;;;29.00;26.50;;;3.50;99.90;;;;;;5040191;28;20490;-77
2021/11/13 08:20:14;;;;;;;29.43;26.63;;;3.60;99.90;;;;;;5034288;28;20574;-77
2021/11/13 08:22:43;;;;;;;29.33;26.80;;;3.70;99.90;;;;;;5038079;28;20955;-83
2021/11/13 08:25:11;;;;;;;29.77;27.17;;;3.70;99.90;;;;;;5048119;28;20926;-77
2021/11/13 08:27:39;;;;;;;28.27;25.77;;;3.70;99.90;;;;;;5040053;28;20455;-76
2021/11/13 08:30:08;;;;;;;27.60;25.30;;;3.80;99.90;;;;;;5042511;28;20536;-78
2021/11/13 08:32:35;;;;;;;30.30;27.50;;;3.90;99.90;;;;;;5033782;28;20633;-76
2021/11/13 08:35:06;;;;;;;30.67;27.87;;;3.90;99.90;;;;;;5036997;28;20199;-76
2021/11/13 08:37:33;;;;;;;29.47;26.73;;;4.00;99.90;;;;;;5038084;28;20483;-76
2021/11/13 08:40:00;;;;;;;29.73;27.03;;;4.10;99.90;;;;;;5039492;28;20433;-77
2021/11/13 08:42:27;;;;;;;28.67;26.10;;;4.20;99.90;;;;;;5033455;28;20463;-79
2021/11/13 08:44:55;;;;;;;28.10;25.60;;;4.50;99.90;;;;;;5032554;28;20215;-78
2021/11/13 08:47:24;;;;;;;29.23;26.23;;;4.70;99.90;;;;;;5040597;28;20282;-77
2021/11/13 08:49:52;;;;;;;30.77;27.90;;;4.80;99.90;;;;;;5032920;28;20253;-76
2021/11/13 08:52:22;;;;;;;28.83;26.33;;;5.00;99.90;;;;;;5033481;28;20211;-76
2021/11/13 08:54:50;;;;;;;28.80;26.40;;;5.20;99.90;;;;;;5030004;28;20242;-76
2021/11/13 08:57:17;;;;;;;29.93;27.13;;;5.40;99.90;;;;;;5037976;28;20254;-82
2021/11/13 08:59:44;;;;;;;31.23;28.33;;;5.70;99.90;;;;;;5038315;28;20199;-77
2021/11/13 09:02:16;;;;;;;28.40;25.90;;;5.90;99.90;;;;;;5036619;28;20212;-77
2021/11/13 09:04:45;;;;;;;27.33;24.93;;;6.10;99.90;;;;;;5034736;28;20261;-76
2021/11/13 09:07:12;;;;;;;25.73;23.60;;;6.30;99.90;;;;;;5035927;28;20250;-76
2021/11/13 09:09:40;;;;;;;25.47;23.27;;;6.40;99.90;;;;;;5038098;28;20665;-76
2021/11/13 09:12:11;;;;;;;25.03;22.93;;;6.40;99.90;;;;;;5039722;28;20258;-76
2021/11/13 09:14:38;;;;;;;15.17;13.20;;;6.40;99.90;;;;;;5037373;28;20203;-76
2021/11/13 09:17:05;;;;;;;19.10;13.40;;;6.40;99.90;;;;;;5039326;28;20261;-76
2021/11/13 09:19:32;;;;;;;17.03;14.13;;;6.40;99.90;;;;;;5037680;28;20196;-76
2021/11/13 09:21:59;;;;;;;16.60;14.73;;;6.40;99.90;;;;;;5037834;28;20231;-76
2021/11/13 09:24:26;;;;;;;16.33;14.63;;;6.40;99.90;;;;;;5036695;28;20200;-76
2021/11/13 09:26:55;;;;;;;19.60;15.97;;;6.40;99.90;;;;;;5040223;28;20196;-76
2021/11/13 09:29:21;;;;;;;25.83;23.37;;;6.40;99.90;;;;;;5044763;28;20333;-76
2021/11/13 09:31:48;;;;;;;15.90;14.23;;;6.50;99.90;;;;;;5040476;28;20221;-76
2021/11/13 09:34:18;;;;;;;23.77;21.77;;;6.70;99.90;;;;;;5040077;28;20259;-76
2021/11/13 09:36:46;;;;;;;23.80;21.90;;;6.90;99.90;;;;;;5038168;28;20742;-76
2021/11/13 09:39:13;;;;;;;17.30;15.60;;;7.00;99.90;;;;;;5032776;28;20231;-76
2021/11/13 09:41:41;;;;;;;19.10;17.27;;;7.00;99.90;;;;;;5033969;28;20224;-76
2021/11/13 09:44:09;;;;;;;22.27;19.97;;;7.00;99.90;;;;;;5032897;28;20236;-76
2021/11/13 09:46:37;;;;;;;21.03;19.10;;;7.10;99.90;;;;;;5044070;28;20195;-76
2021/11/13 09:49:05;;;;;;;18.70;15.57;;;7.20;99.90;;;;;;5037339;28;20205;-76
2021/11/13 09:51:33;;;;;;;19.00;16.57;;;7.20;99.90;;;;;;5041021;28;20228;-75
2021/11/13 09:54:00;;;;;;;22.27;20.27;;;7.10;99.90;;;;;;5038409;28;20259;-76
2021/11/13 09:56:27;;;;;;;17.13;14.60;;;7.10;99.90;;;;;;5036217;28;20276;-77
2021/11/13 09:58:54;;;;;;;17.83;15.93;;;7.20;99.90;;;;;;5038903;28;20692;-76
2021/11/13 10:01:22;;;;;;;18.73;15.27;;;7.30;99.90;;;;;;5039953;28;20635;-76
2021/11/13 10:03:50;;;;;;;16.13;14.53;;;7.30;99.90;;;;;;5050180;28;20208;-76
2021/11/13 10:06:18;;;;;;;15.90;14.20;;;7.40;99.90;;;;;;5040832;28;20207;-77
2021/11/13 10:08:46;;;;;;;16.77;14.27;;;7.50;99.90;;;;;;5037497;28;20285;-76
2021/11/13 10:11:17;;;;;;;17.40;15.03;;;7.50;99.90;;;;;;5040406;28;20735;-76
2021/11/13 10:13:46;;;;;;;15.13;12.57;;;7.50;99.90;;;;;;5046368;28;20234;-76
2021/11/13 10:16:15;;;;;;;17.07;15.00;;;7.70;99.90;;;;;;5048107;28;20661;-76
2021/11/13 10:18:46;;;;;;;18.50;16.53;;;7.80;99.90;;;;;;5043182;28;20240;-77
2021/11/13 10:21:17;;;;;;;25.77;23.57;;;8.10;99.90;;;;;;5044220;28;20212;-76
2021/11/13 10:23:46;;;;;;;26.20;24.10;;;8.40;99.90;;;;;;5051298;28;20248;-76
2021/11/13 10:26:18;;;;;;;23.77;21.87;;;8.60;99.90;;;;;;5040916;28;20232;-76
2021/11/13 10:28:53;;;;;;;22.27;20.57;;;9.00;99.90;;;;;;5048306;28;20218;-77
2021/11/13 10:31:22;;;;;;;17.73;15.93;;;9.40;99.90;;;;;;5040348;28;20273;-76
2021/11/13 10:33:52;;;;;;;18.83;17.33;;;9.80;99.90;;;;;;5047744;28;20194;-76
2021/11/13 10:36:25;;;;;;;20.00;18.50;;;10.10;99.90;;;;;;5047559;28;20253;-77
2021/11/13 10:39:01;;;;;;;21.53;19.73;;;10.40;99.90;;;;;;5038939;28;20203;-76
2021/11/13 10:41:29;;;;;;;18.70;17.27;;;10.50;99.90;;;;;;5041115;28;20226;-77
2021/11/13 10:43:56;;;;;;;19.23;17.53;;;10.60;99.90;;;;;;5043989;28;20593;-77
2021/11/13 10:46:25;;;;;;;18.50;17.10;;;10.50;99.90;;;;;;5038528;28;20192;-76
2021/11/13 10:48:57;;;;;;;19.33;17.83;;;10.40;99.90;;;;;;5042770;28;20687;-76
2021/11/13 10:51:28;;;;;;;14.53;13.33;;;10.40;99.90;;;;;;5086361;22;20594;-81
2021/11/13 10:53:55;;;;;;;13.53;12.43;;;10.20;99.90;;;;;;5067089;28;20224;-80
2021/11/13 10:56:24;;;;;;;12.63;11.57;;;10.10;99.90;;;;;;5082930;28;20190;-80
2021/11/13 10:58:58;;;;;;;11.60;10.50;;;10.00;99.90;;;;;;5074426;28;20255;-82
2021/11/13 11:01:35;;;;;;;9.53;8.53;;;9.80;99.90;;;;;;5083598;28;20218;-81
2021/11/13 11:04:09;;;;;;;8.97;8.07;;;9.70;99.90;;;;;;5069708;28;20218;-80
2021/11/13 11:06:41;;;;;;;10.40;9.50;;;9.60;99.90;;;;;;5071478;28;20584;-80
2021/11/13 11:09:18;;;;;;;12.10;11.00;;;9.50;99.90;;;;;;5056468;28;20195;-80
2021/11/13 11:11:45;;;;;;;13.40;12.20;;;9.50;99.90;;;;;;5053132;28;20222;-80
2021/11/13 11:14:15;;;;;;;12.93;11.83;;;9.50;99.90;;;;;;5071145;28;20538;-81
2021/11/13 11:16:44;;;;;;;11.47;10.33;;;9.60;99.90;;;;;;5053994;28;20647;-81
2021/11/13 11:19:14;;;;;;;11.90;10.80;;;9.60;99.90;;;;;;5043834;28;20195;-80
2021/11/13 11:22:01;;;;;;;14.07;12.67;;;9.70;99.90;;;;;;5070790;28;20226;-80
2021/11/13 11:24:32;;;;;;;14.60;13.37;;;9.60;99.90;;;;;;5070591;28;20225;-80
2021/11/13 11:27:03;;;;;;;14.60;13.40;;;9.60;99.90;;;;;;5050352;28;20202;-81
2021/11/13 11:29:33;;;;;;;14.30;13.00;;;9.60;99.90;;;;;;5064456;28;20253;-80
2021/11/13 11:32:02;;;;;;;14.73;13.43;;;9.60;99.90;;;;;;5075285;28;20504;-82
2021/11/13 11:34:33;;;;;;;14.27;12.87;;;9.40;99.90;;;;;;5049970;28;20191;-80
2021/11/13 11:37:06;;;;;;;13.80;12.53;;;9.30;99.90;;;;;;5053665;28;20615;-80
2021/11/13 11:39:33;;;;;;;14.23;12.90;;;9.30;99.90;;;;;;5073234;28;20194;-81
2021/11/13 11:42:00;;;;;;;14.80;13.47;;;9.20;99.90;;;;;;5052501;28;20223;-81
2021/11/13 11:44:28;;;;;;;15.23;13.93;;;9.20;99.90;;;;;;5068024;28;20218;-82
2021/11/13 11:46:55;;;;;;;15.33;13.93;;;9.10;99.90;;;;;;5067893;28;20256;-81
2021/11/13 11:49:23;;;;;;;14.80;13.57;;;9.10;99.90;;;;;;5056041;28;20272;-80
2021/11/13 11:51:52;;;;;;;12.00;10.80;;;9.10;99.90;;;;;;5070703;28;20247;-81
2021/11/13 11:54:19;;;;;;;11.80;10.60;;;9.10;99.90;;;;;;5055406;28;20205;-82
2021/11/13 11:56:46;;;;;;;11.83;10.63;;;9.10;99.90;;;;;;5055435;28;20621;-81
2021/11/13 11:59:13;;;;;;;10.37;9.40;;;9.10;99.90;;;;;;5072483;28;20273;-80
2021/11/13 12:01:42;;;;;;;11.00;9.80;;;9.10;99.90;;;;;;5070631;28;20215;-81
2021/11/13 12:04:20;;;;;;;12.10;10.80;;;9.10;99.90;;;;;;5069685;28;20218;-80
2021/11/13 12:06:52;;;;;;;12.17;10.97;;;9.00;99.90;;;;;;5071868;28;20686;-81
2021/11/13 12:09:19;;;;;;;10.27;9.27;;;9.00;99.90;;;;;;5073068;28;20220;-80
2021/11/13 12:11:47;;;;;;;18.80;17.23;;;9.00;99.90;;;;;;5054913;28;20648;-81
2021/11/13 12:14:36;;;;;;;20.63;19.17;;;9.00;99.90;;;;;;5072384;28;20252;-80
2021/11/13 12:17:23;;;;;;;12.97;11.87;;;9.00;99.90;;;;;;5049524;28;20202;-80
2021/11/13 12:20:30;;;;;;;14.67;13.47;;;9.00;99.90;;;;;;5044455;28;20194;-80
2021/11/13 12:23:16;;;;;;;16.67;15.13;;;9.00;99.90;;;;;;5053334;28;20748;-82
2021/11/13 12:26:07;;;;;;;16.13;14.80;;;8.90;99.90;;;;;;5059369;28;20296;-81
2021/11/13 12:28:37;;;;;;;16.77;15.27;;;8.90;99.90;;;;;;5055651;28;20596;-81
2021/11/13 12:31:17;;;;;;;17.33;15.83;;;8.90;99.90;;;;;;5057061;28;20237;-81
2021/11/13 12:34:03;;;;;;;17.70;16.10;;;8.80;99.90;;;;;;5071349;28;20190;-81
2021/11/13 12:36:35;;;;;;;17.10;15.60;;;8.80;99.90;;;;;;5071856;28;20227;-80
2021/11/13 12:39:12;;;;;;;16.87;15.37;;;8.80;99.90;;;;;;5052871;28;20200;-81
2021/11/13 12:42:02;;;;;;;17.50;15.80;;;8.80;99.90;;;;;;5071264;28;20222;-81
2021/11/13 12:44:40;;;;;;;16.87;15.27;;;8.80;99.90;;;;;;5069281;28;20225;-81